Time;durP1;ratioP1;P1;durP2;ratioP2;P2;SDS_P1;SDS_P2;PMS_P1;PMS_P2;Temp;Humidity;BMP_temperature;BMP_pressure;BME280_temperature;BME280_humidity;BME280_pressure;Samples;Min_cycle;Max_cycle;Signal;HPM_P1;HPM_P2
2024/02/02 00:02:14;;;;;;;29.93;21.40;;;4.90;99.90;;;;;;5011613;28;20116;-74
2024/02/02 00:04:40;;;;;;;27.17;20.27;;;4.90;99.90;;;;;;5013350;28;20029;-75
2024/02/02 00:07:05;;;;;;;31.70;21.83;;;4.90;99.90;;;;;;5019581;28;20022;-73
2024/02/02 00:09:31;;;;;;;28.43;20.27;;;5.00;99.90;;;;;;5011321;28;20030;-73
2024/02/02 00:11:56;;;;;;;32.30;22.83;;;5.00;99.90;;;;;;5011483;28;20058;-73
2024/02/02 00:14:22;;;;;;;35.07;24.27;;;5.00;99.90;;;;;;5028230;28;20432;-74
2024/02/02 00:16:48;;;;;;;32.97;23.77;;;5.00;99.90;;;;;;5030660;28;20033;-74
2024/02/02 00:19:13;;;;;;;32.30;23.27;;;5.00;99.90;;;;;;5030683;28;20022;-74
2024/02/02 00:21:39;;;;;;;35.00;23.77;;;5.00;99.90;;;;;;5031077;28;20095;-74
2024/02/02 00:24:04;;;;;;;31.53;23.37;;;5.00;99.90;;;;;;5030801;28;20396;-73
2024/02/02 00:26:30;;;;;;;34.40;23.53;;;5.00;99.90;;;;;;5030934;28;20104;-74
2024/02/02 00:28:55;;;;;;;34.00;23.43;;;5.00;99.90;;;;;;5030529;28;20108;-74
2024/02/02 00:31:22;;;;;;;33.43;24.17;;;5.00;99.90;;;;;;5030779;28;20010;-74
2024/02/02 00:33:48;;;;;;;55.00;28.33;;;5.00;99.90;;;;;;5034461;28;20022;-74
2024/02/02 00:36:14;;;;;;;32.97;23.33;;;5.00;99.90;;;;;;5034440;28;20026;-74
2024/02/02 00:38:40;;;;;;;32.43;22.53;;;5.00;99.90;;;;;;5032284;28;20034;-73
2024/02/02 00:41:05;;;;;;;29.43;20.80;;;5.00;99.90;;;;;;5025754;28;20022;-73
2024/02/02 00:43:31;;;;;;;30.13;20.57;;;5.00;99.90;;;;;;5015213;28;20022;-73
2024/02/02 00:45:56;;;;;;;30.80;22.07;;;5.00;99.90;;;;;;5015146;28;20025;-72
2024/02/02 00:48:22;;;;;;;30.20;20.60;;;5.00;99.90;;;;;;5025380;28;20026;-72
2024/02/02 00:50:47;;;;;;;28.70;20.20;;;5.00;99.90;;;;;;5033186;28;20087;-72
2024/02/02 00:53:13;;;;;;;30.23;21.30;;;5.00;99.90;;;;;;5034209;28;20026;-73
2024/02/02 00:55:38;;;;;;;27.03;20.03;;;5.00;99.90;;;;;;5034171;28;20118;-73
2024/02/02 00:58:04;;;;;;;28.37;21.07;;;4.90;99.90;;;;;;5033744;28;20026;-73
2024/02/02 01:00:30;;;;;;;32.13;21.63;;;4.90;99.90;;;;;;5034370;28;20373;-72
2024/02/02 01:02:55;;;;;;;29.47;21.33;;;4.90;99.90;;;;;;5034522;28;20100;-72
2024/02/02 01:05:21;;;;;;;28.33;20.33;;;4.90;99.90;;;;;;5034197;28;20064;-73
2024/02/02 01:07:47;;;;;;;26.93;20.40;;;4.90;99.90;;;;;;5033915;28;20056;-73
2024/02/02 01:10:16;;;;;;;28.43;20.93;;;4.90;99.90;;;;;;5034431;28;20105;-73
2024/02/02 01:12:43;;;;;;;28.50;19.83;;;4.90;99.90;;;;;;5027527;28;20121;-72
2024/02/02 01:15:09;;;;;;;27.30;20.27;;;4.90;99.90;;;;;;5016209;28;20075;-72
2024/02/02 01:17:34;;;;;;;30.20;20.43;;;4.90;99.90;;;;;;5014309;28;20057;-72
2024/02/02 01:20:03;;;;;;;27.50;20.10;;;4.90;99.90;;;;;;5014223;28;20049;-72
2024/02/02 01:22:32;;;;;;;29.50;19.87;;;4.90;99.90;;;;;;5026574;28;20025;-73
2024/02/02 01:24:58;;;;;;;30.20;20.30;;;4.90;99.90;;;;;;5033428;28;20116;-72
2024/02/02 01:27:24;;;;;;;29.70;20.47;;;4.90;99.90;;;;;;5033538;28;20492;-72
2024/02/02 01:29:50;;;;;;;28.60;20.37;;;4.90;99.90;;;;;;5033763;28;20369;-73
2024/02/02 01:32:16;;;;;;;28.97;21.27;;;4.90;99.90;;;;;;5034199;28;20017;-73
2024/02/02 01:34:41;;;;;;;28.97;20.80;;;4.90;99.90;;;;;;5034026;28;20048;-72
2024/02/02 01:37:07;;;;;;;29.20;20.13;;;4.80;99.90;;;;;;5033677;28;20052;-73
2024/02/02 01:39:32;;;;;;;28.70;19.70;;;4.80;99.90;;;;;;5027343;28;20030;-72
2024/02/02 01:41:59;;;;;;;33.53;20.10;;;4.80;99.90;;;;;;5021684;28;20396;-72
2024/02/02 01:44:24;;;;;;;30.03;20.83;;;4.80;99.90;;;;;;5013755;28;20029;-72
2024/02/02 01:46:50;;;;;;;26.90;19.00;;;4.70;99.90;;;;;;5024385;28;20029;-73
2024/02/02 01:49:16;;;;;;;32.53;19.67;;;4.70;99.90;;;;;;5033482;28;20025;-72
2024/02/02 01:51:41;;;;;;;27.60;19.53;;;4.70;99.90;;;;;;5033275;28;20024;-73
2024/02/02 01:54:07;;;;;;;26.00;18.90;;;4.60;99.90;;;;;;5033314;28;20037;-73
2024/02/02 01:56:34;;;;;;;28.27;17.93;;;4.60;99.90;;;;;;5033335;28;20165;-73
2024/02/02 01:59:02;;;;;;;29.27;19.27;;;4.60;99.90;;;;;;5026184;28;20033;-73
2024/02/02 02:01:28;;;;;;;27.40;18.90;;;4.50;99.90;;;;;;5015915;28;20030;-72
2024/02/02 02:03:54;;;;;;;24.97;17.17;;;4.50;99.90;;;;;;5013753;28;20052;-73
2024/02/02 02:06:19;;;;;;;25.97;16.20;;;4.50;99.90;;;;;;5016167;28;20022;-73
2024/02/02 02:08:46;;;;;;;23.20;15.23;;;4.50;99.90;;;;;;5032815;28;20437;-72
2024/02/02 02:11:11;;;;;;;22.77;15.70;;;4.40;99.90;;;;;;5032816;28;20037;-73
2024/02/02 02:13:37;;;;;;;22.33;15.90;;;4.40;99.90;;;;;;5033336;28;20472;-72
2024/02/02 02:16:03;;;;;;;22.47;14.37;;;4.30;99.90;;;;;;5033177;28;20056;-72
2024/02/02 02:18:28;;;;;;;22.00;15.27;;;4.30;99.90;;;;;;5033032;28;20070;-72
2024/02/02 02:20:57;;;;;;;23.00;14.97;;;4.30;99.90;;;;;;5032950;28;20021;-73
2024/02/02 02:23:24;;;;;;;24.67;14.57;;;4.20;99.90;;;;;;5026365;28;20029;-72
2024/02/02 02:25:50;;;;;;;20.03;14.07;;;4.20;99.90;;;;;;5015581;28;20532;-73
2024/02/02 02:28:15;;;;;;;18.13;13.83;;;4.20;99.90;;;;;;5026643;28;20021;-72
2024/02/02 02:30:45;;;;;;;21.33;13.97;;;4.10;99.90;;;;;;5025819;28;20033;-74
2024/02/02 02:33:11;;;;;;;21.20;13.10;;;4.10;99.90;;;;;;5017240;28;20049;-73
2024/02/02 02:35:37;;;;;;;23.60;13.37;;;4.00;99.90;;;;;;5013025;28;20072;-72
2024/02/02 02:38:03;;;;;;;22.93;13.43;;;4.00;99.90;;;;;;5020563;28;20498;-72
2024/02/02 02:40:28;;;;;;;19.70;13.30;;;3.90;99.90;;;;;;5025672;28;20033;-73
2024/02/02 02:42:54;;;;;;;21.57;14.00;;;3.90;99.90;;;;;;5018473;28;20180;-73
2024/02/02 02:45:20;;;;;;;20.73;12.53;;;3.80;99.90;;;;;;5025516;28;20025;-73
2024/02/02 02:47:45;;;;;;;17.67;12.63;;;3.80;99.90;;;;;;5032109;28;20457;-72
2024/02/02 02:50:11;;;;;;;18.57;13.50;;;3.80;99.90;;;;;;5032139;28;20056;-72
2024/02/02 02:52:36;;;;;;;19.77;12.90;;;3.70;99.90;;;;;;5032179;28;20033;-73
2024/02/02 02:55:02;;;;;;;24.50;13.90;;;3.70;99.90;;;;;;5023087;28;20075;-73
2024/02/02 02:57:27;;;;;;;20.00;13.27;;;3.60;99.90;;;;;;5013074;28;20096;-73
2024/02/02 02:59:53;;;;;;;21.17;13.43;;;3.60;99.90;;;;;;5027961;28;20009;-72
2024/02/02 03:02:18;;;;;;;18.97;13.10;;;3.50;99.90;;;;;;5023351;28;20029;-73
2024/02/02 03:04:44;;;;;;;20.10;12.90;;;3.40;99.90;;;;;;5012508;28;20391;-73
2024/02/02 03:07:10;;;;;;;21.03;12.97;;;3.40;99.90;;;;;;5011995;28;20057;-73
2024/02/02 03:09:36;;;;;;;23.20;14.73;;;3.30;99.90;;;;;;5012149;28;20054;-73
2024/02/02 03:12:02;;;;;;;21.60;14.33;;;3.30;99.90;;;;;;5025389;28;20507;-73
2024/02/02 03:14:28;;;;;;;22.60;13.33;;;3.20;99.90;;;;;;5031864;28;20104;-72
2024/02/02 03:16:53;;;;;;;19.13;13.60;;;3.20;99.90;;;;;;5024841;28;20105;-72
2024/02/02 03:19:19;;;;;;;21.00;14.17;;;3.10;99.90;;;;;;5012393;28;20038;-72
2024/02/02 03:21:44;;;;;;;22.37;13.77;;;3.10;99.90;;;;;;5012257;28;20485;-73
2024/02/02 03:24:10;;;;;;;20.63;14.30;;;3.10;99.90;;;;;;5012194;28;20686;-72
2024/02/02 03:26:36;;;;;;;26.33;15.10;;;3.00;99.90;;;;;;5018070;28;20064;-73
2024/02/02 03:29:03;;;;;;;25.13;15.33;;;3.00;99.90;;;;;;5011886;28;20107;-73
2024/02/02 03:31:28;;;;;;;22.83;15.23;;;2.90;99.90;;;;;;5014214;28;20042;-73
2024/02/02 03:33:54;;;;;;;24.47;15.97;;;2.90;99.90;;;;;;5020944;28;20029;-73
2024/02/02 03:36:19;;;;;;;26.00;16.80;;;2.90;99.90;;;;;;5030088;28;20512;-72
2024/02/02 03:38:45;;;;;;;28.93;17.40;;;2.90;99.90;;;;;;5030281;28;20084;-73
2024/02/02 03:41:11;;;;;;;30.83;17.63;;;2.90;99.90;;;;;;5021600;28;20033;-72
2024/02/02 03:43:36;;;;;;;31.90;20.00;;;2.90;99.90;;;;;;5012188;28;20018;-73
2024/02/02 03:46:02;;;;;;;29.77;19.23;;;3.00;99.90;;;;;;5022213;28;20550;-73
2024/02/02 03:48:27;;;;;;;34.13;20.57;;;3.00;99.90;;;;;;5030978;28;20030;-72
2024/02/02 03:50:53;;;;;;;31.63;19.87;;;3.00;99.90;;;;;;5031048;28;20045;-73
2024/02/02 03:53:18;;;;;;;33.23;20.57;;;3.00;99.90;;;;;;5031178;28;20025;-72
2024/02/02 03:55:44;;;;;;;32.37;19.53;;;3.10;99.90;;;;;;5031152;28;20598;-72
2024/02/02 03:58:09;;;;;;;31.37;20.63;;;3.10;99.90;;;;;;5031241;28;20071;-72
2024/02/02 04:00:35;;;;;;;40.60;22.20;;;3.10;99.90;;;;;;5031125;28;20024;-73
2024/02/02 04:03:00;;;;;;;33.50;22.40;;;3.20;99.90;;;;;;5031185;28;20040;-73
2024/02/02 04:05:26;;;;;;;34.50;22.33;;;3.20;99.90;;;;;;5031033;28;20022;-72
2024/02/02 04:07:52;;;;;;;35.23;22.20;;;3.20;99.90;;;;;;5029825;28;20022;-72
2024/02/02 04:10:17;;;;;;;35.00;21.87;;;3.20;99.90;;;;;;5030732;28;20033;-72
2024/02/02 04:12:43;;;;;;;38.73;22.60;;;3.30;99.90;;;;;;5028881;28;20029;-73
2024/02/02 04:15:09;;;;;;;34.97;22.13;;;3.30;99.90;;;;;;5021913;28;20037;-73
2024/02/02 04:17:34;;;;;;;35.93;24.00;;;3.30;99.90;;;;;;5011086;28;20440;-73
2024/02/02 04:20:00;;;;;;;36.37;23.80;;;3.40;99.90;;;;;;5023872;28;20025;-73
2024/02/02 04:22:25;;;;;;;39.67;23.50;;;3.40;99.90;;;;;;5031169;28;20399;-73
2024/02/02 04:24:52;;;;;;;39.10;24.13;;;3.40;99.90;;;;;;5030985;28;20051;-72
2024/02/02 04:27:17;;;;;;;37.57;23.60;;;3.50;99.90;;;;;;5030806;28;20030;-72
2024/02/02 04:29:43;;;;;;;36.30;23.13;;;3.50;99.90;;;;;;5024409;28;20393;-72
2024/02/02 04:32:09;;;;;;;39.07;24.97;;;3.60;99.90;;;;;;5016689;28;20048;-73
2024/02/02 04:34:34;;;;;;;39.50;24.57;;;3.60;99.90;;;;;;5023250;28;20033;-72
2024/02/02 04:37:00;;;;;;;39.00;24.37;;;3.60;99.90;;;;;;5018941;28;20100;-72
2024/02/02 04:39:25;;;;;;;40.67;25.57;;;3.60;99.90;;;;;;5016158;28;20029;-73
2024/02/02 04:41:51;;;;;;;40.20;25.60;;;3.60;99.90;;;;;;5022541;28;20105;-73
2024/02/02 04:44:16;;;;;;;36.97;24.53;;;3.60;99.90;;;;;;5030774;28;20155;-73
2024/02/02 04:46:42;;;;;;;41.37;25.83;;;3.70;99.90;;;;;;5030792;28;20045;-72
2024/02/02 04:49:07;;;;;;;41.93;26.23;;;3.70;99.90;;;;;;5030452;28;20037;-73
2024/02/02 04:51:33;;;;;;;41.17;26.17;;;3.70;99.90;;;;;;5030292;28;20084;-73
2024/02/02 04:53:58;;;;;;;41.63;26.10;;;3.80;99.90;;;;;;5030560;28;20028;-72
2024/02/02 04:56:24;;;;;;;40.50;25.60;;;3.80;99.90;;;;;;5030976;28;20020;-72
2024/02/02 04:58:51;;;;;;;40.80;25.50;;;3.80;99.90;;;;;;5030584;28;20029;-73
2024/02/02 05:01:18;;;;;;;40.40;25.00;;;3.80;99.90;;;;;;5020172;28;20058;-73
2024/02/02 05:03:44;;;;;;;42.20;26.57;;;3.80;99.90;;;;;;5010892;28;20485;-72
2024/02/02 05:06:10;;;;;;;39.00;25.40;;;3.90;99.90;;;;;;5011302;28;20040;-73
2024/02/02 05:08:35;;;;;;;37.90;25.37;;;3.90;99.90;;;;;;5010332;28;20036;-73
2024/02/02 05:11:01;;;;;;;39.77;25.37;;;3.90;99.90;;;;;;5010697;28;20088;-73
2024/02/02 05:13:26;;;;;;;40.47;26.67;;;3.90;99.90;;;;;;5015904;28;20072;-73
2024/02/02 05:15:52;;;;;;;39.50;25.23;;;3.90;99.90;;;;;;5021213;28;20013;-72
2024/02/02 05:18:18;;;;;;;40.00;27.10;;;3.90;99.90;;;;;;5027068;28;20029;-73
2024/02/02 05:20:43;;;;;;;38.90;25.50;;;4.00;99.90;;;;;;5020665;28;20032;-73
2024/02/02 05:23:10;;;;;;;38.47;25.60;;;4.00;99.90;;;;;;5024344;28;20022;-72
2024/02/02 05:25:36;;;;;;;39.93;26.07;;;4.00;99.90;;;;;;5024477;28;20492;-72
2024/02/02 05:28:03;;;;;;;35.13;23.87;;;4.00;99.90;;;;;;5023764;28;20097;-75
2024/02/02 05:30:28;;;;;;;37.67;24.47;;;4.00;99.90;;;;;;5022959;28;20022;-72
2024/02/02 05:32:54;;;;;;;35.33;23.63;;;4.00;99.90;;;;;;5025620;28;20071;-73
2024/02/02 05:35:20;;;;;;;34.30;23.90;;;4.00;99.90;;;;;;5023723;28;20029;-73
2024/02/02 05:37:45;;;;;;;36.43;23.17;;;4.00;99.90;;;;;;5032102;28;20056;-73
2024/02/02 05:40:11;;;;;;;33.67;22.83;;;4.00;99.90;;;;;;5027936;28;20075;-72
2024/02/02 05:42:37;;;;;;;30.67;21.60;;;4.10;99.90;;;;;;5016761;28;20030;-72
2024/02/02 05:45:02;;;;;;;34.00;23.23;;;4.10;99.90;;;;;;5014137;28;20032;-72
2024/02/02 05:47:28;;;;;;;31.20;21.40;;;4.10;99.90;;;;;;5021866;28;20077;-73
2024/02/02 05:49:53;;;;;;;30.20;21.13;;;4.10;99.90;;;;;;5033782;28;20025;-73
2024/02/02 05:52:19;;;;;;;29.67;20.40;;;4.10;99.90;;;;;;5027149;28;20037;-72
2024/02/02 05:54:44;;;;;;;31.13;20.90;;;4.10;99.90;;;;;;5029537;28;20036;-73
2024/02/02 05:57:10;;;;;;;30.13;20.43;;;4.10;99.90;;;;;;5033661;28;20044;-72
2024/02/02 05:59:35;;;;;;;29.37;19.83;;;4.10;99.90;;;;;;5033795;28;20033;-73
2024/02/02 06:02:01;;;;;;;29.13;19.33;;;4.00;99.90;;;;;;5033869;28;20026;-73
2024/02/02 06:04:27;;;;;;;27.80;19.17;;;4.10;99.90;;;;;;5022003;28;20143;-73
2024/02/02 06:06:52;;;;;;;30.63;20.57;;;4.10;99.90;;;;;;5020491;28;20400;-73
2024/02/02 06:09:18;;;;;;;32.47;21.90;;;4.10;99.90;;;;;;5022584;28;20026;-73
2024/02/02 06:11:44;;;;;;;27.73;19.37;;;4.10;99.90;;;;;;5018906;28;20049;-72
2024/02/02 06:14:09;;;;;;;28.27;18.80;;;4.10;99.90;;;;;;5019492;28;20025;-73
2024/02/02 06:16:35;;;;;;;28.73;19.37;;;4.10;99.90;;;;;;5020470;28;20026;-72
2024/02/02 06:19:01;;;;;;;27.70;19.60;;;4.10;99.90;;;;;;5020368;28;20018;-73
2024/02/02 06:21:26;;;;;;;28.20;19.13;;;4.10;99.90;;;;;;5019350;28;20034;-73
2024/02/02 06:23:52;;;;;;;26.83;18.30;;;4.10;99.90;;;;;;5020970;28;20038;-72
2024/02/02 06:26:17;;;;;;;25.63;17.80;;;4.10;99.90;;;;;;5023674;28;20036;-73
2024/02/02 06:28:43;;;;;;;26.13;18.53;;;4.10;99.90;;;;;;5018026;28;20021;-73
2024/02/02 06:31:08;;;;;;;30.43;17.37;;;4.10;99.90;;;;;;5023193;28;20104;-73
2024/02/02 06:33:34;;;;;;;26.67;18.03;;;4.00;99.90;;;;;;5028482;28;20033;-73
2024/02/02 06:36:00;;;;;;;25.70;17.60;;;4.00;99.90;;;;;;5024785;28;20029;-72
2024/02/02 06:38:25;;;;;;;25.50;17.63;;;4.00;99.90;;;;;;5027021;28;20618;-73
2024/02/02 06:40:51;;;;;;;27.00;17.03;;;4.10;99.90;;;;;;5017542;28;20117;-72
2024/02/02 06:43:16;;;;;;;22.63;16.67;;;4.00;99.90;;;;;;5021606;28;20385;-72
2024/02/02 06:45:42;;;;;;;24.47;17.10;;;4.00;99.90;;;;;;5023472;28;20027;-73
2024/02/02 06:48:13;;;;;;;22.07;15.83;;;4.10;99.90;;;;;;5021366;28;20427;-73
2024/02/02 06:50:38;;;;;;;23.47;15.40;;;4.10;99.90;;;;;;5021701;28;20025;-72
2024/02/02 06:53:05;;;;;;;23.13;16.37;;;4.10;99.90;;;;;;5023556;28;20104;-73
2024/02/02 06:55:30;;;;;;;22.57;16.03;;;4.10;99.90;;;;;;5014362;28;20036;-73
2024/02/02 06:57:56;;;;;;;22.57;15.50;;;4.10;99.90;;;;;;5018945;28;20033;-72
2024/02/02 07:00:21;;;;;;;22.30;15.07;;;4.10;99.90;;;;;;5031129;28;20619;-72
2024/02/02 07:02:47;;;;;;;23.23;15.87;;;4.10;99.90;;;;;;5016151;28;20026;-73
2024/02/02 07:05:14;;;;;;;23.37;16.17;;;4.10;99.90;;;;;;5016316;28;20163;-74
2024/02/02 07:07:40;;;;;;;20.43;15.77;;;4.20;99.90;;;;;;5029775;28;20029;-73
2024/02/02 07:10:09;;;;;;;21.90;14.80;;;4.20;99.90;;;;;;5017736;28;20049;-72
2024/02/02 07:12:42;;;;;;;21.60;14.33;;;4.20;99.90;;;;;;5030933;28;20044;-73
2024/02/02 07:15:18;;;;;;;21.13;15.23;;;4.30;99.90;;;;;;5019986;28;20026;-73
2024/02/02 07:17:45;;;;;;;21.40;14.97;;;4.30;99.90;;;;;;5012957;28;20062;-72
2024/02/02 07:20:51;;;;;;;20.90;15.47;;;4.30;99.90;;;;;;5012513;28;20570;-72
2024/02/02 07:23:29;;;;;;;20.60;14.52;;;4.30;99.90;;;;;;5021740;28;20128;-73
2024/02/02 07:25:54;;;;;;;20.73;13.87;;;4.40;99.90;;;;;;5025570;28;20087;-73
2024/02/02 07:28:38;;;;;;;19.60;13.93;;;4.40;99.90;;;;;;5019896;28;20038;-72
2024/02/02 07:31:08;;;;;;;19.37;14.07;;;4.50;99.90;;;;;;5019728;28;20033;-72
2024/02/02 07:33:41;;;;;;;19.93;14.33;;;4.50;99.90;;;;;;5025457;28;20566;-73
2024/02/02 07:36:30;;;;;;;18.83;13.73;;;4.60;99.90;;;;;;5022180;28;20033;-73
2024/02/02 07:38:56;;;;;;;18.10;13.10;;;4.60;99.90;;;;;;5023731;28;20029;-74
2024/02/02 07:41:28;;;;;;;21.77;15.03;;;4.60;99.90;;;;;;5026986;28;20025;-74
2024/02/02 07:43:56;;;;;;;20.67;13.40;;;4.70;99.90;;;;;;5030272;28;20075;-72
2024/02/02 07:46:22;;;;;;;18.30;13.00;;;4.70;99.90;;;;;;5032874;28;20026;-72
2024/02/02 07:48:50;;;;;;;22.17;13.50;;;4.80;99.90;;;;;;5015694;28;20107;-72
2024/02/02 07:51:18;;;;;;;18.57;13.77;;;4.80;99.90;;;;;;5018833;28;20504;-72
2024/02/02 07:53:46;;;;;;;18.83;13.53;;;4.80;99.90;;;;;;5025037;28;20456;-72
2024/02/02 07:56:13;;;;;;;18.87;12.73;;;4.80;99.90;;;;;;5027176;28;20387;-72
2024/02/02 07:58:41;;;;;;;17.83;12.63;;;4.90;99.90;;;;;;5030083;28;20040;-72
2024/02/02 08:01:08;;;;;;;20.33;13.63;;;4.90;99.90;;;;;;5028893;28;20079;-73
2024/02/02 08:03:35;;;;;;;18.03;12.57;;;4.90;99.90;;;;;;5031585;28;20037;-72
2024/02/02 08:06:00;;;;;;;19.80;13.27;;;5.00;99.90;;;;;;5027432;28;20041;-73
2024/02/02 08:08:26;;;;;;;15.90;11.43;;;5.00;99.90;;;;;;5028718;28;20108;-72
2024/02/02 08:10:53;;;;;;;17.90;11.90;;;5.00;99.90;;;;;;5027574;28;20037;-72
2024/02/02 08:13:19;;;;;;;18.97;12.03;;;5.10;99.90;;;;;;5029705;28;20404;-72
2024/02/02 08:15:45;;;;;;;16.93;11.77;;;5.10;99.90;;;;;;5032526;28;20116;-73
2024/02/02 08:18:11;;;;;;;17.67;12.10;;;5.10;99.90;;;;;;5028226;28;20105;-72
2024/02/02 08:20:37;;;;;;;17.70;11.37;;;5.10;99.90;;;;;;5022430;28;20068;-72
2024/02/02 08:23:03;;;;;;;15.63;11.47;;;5.20;99.90;;;;;;5034671;28;20053;-72
2024/02/02 08:25:29;;;;;;;15.63;11.20;;;5.20;99.90;;;;;;5032820;28;20373;-72
2024/02/02 08:27:55;;;;;;;17.40;11.10;;;5.30;99.90;;;;;;5030353;28;20033;-72
2024/02/02 08:30:23;;;;;;;16.20;11.53;;;5.30;99.90;;;;;;5036774;28;20484;-72
2024/02/02 08:32:51;;;;;;;12.70;10.30;;;5.40;99.90;;;;;;5034988;28;20081;-72
2024/02/02 08:35:21;;;;;;;14.67;9.87;;;5.50;99.90;;;;;;5042698;28;20021;-72
2024/02/02 08:37:51;;;;;;;14.00;10.07;;;5.50;99.90;;;;;;5037444;28;20419;-72
2024/02/02 08:40:42;;;;;;;12.63;9.20;;;5.60;99.90;;;;;;5027559;28;20048;-73
2024/02/02 08:43:12;;;;;;;13.93;9.37;;;5.60;99.90;;;;;;5017859;28;20109;-72
2024/02/02 08:46:02;;;;;;;13.87;9.83;;;5.60;99.90;;;;;;5025110;28;20104;-72
2024/02/02 08:48:37;;;;;;;13.53;9.53;;;5.70;99.90;;;;;;5019470;28;20026;-72
2024/02/02 08:51:21;;;;;;;13.63;9.52;;;5.80;99.90;;;;;;5022721;28;20056;-72
2024/02/02 08:53:47;;;;;;;13.10;9.30;;;5.90;99.90;;;;;;5027385;28;20034;-72
2024/02/02 08:56:14;;;;;;;12.57;9.23;;;5.90;99.90;;;;;;5023105;28;20030;-72
2024/02/02 08:58:41;;;;;;;13.53;8.80;;;6.00;99.90;;;;;;5022748;28;20029;-72
2024/02/02 09:01:29;;;;;;;13.23;8.47;;;6.00;99.90;;;;;;5028718;28;20480;-73
2024/02/02 09:03:55;;;;;;;13.73;8.10;;;6.10;99.90;;;;;;5032967;28;20037;-72
2024/02/02 09:06:23;;;;;;;12.03;7.80;;;6.20;99.90;;;;;;5031075;28;20117;-72
2024/02/02 09:08:49;;;;;;;10.33;7.20;;;6.20;99.90;;;;;;5025674;28;20053;-72
2024/02/02 09:11:20;;;;;;;9.83;7.57;;;6.30;99.90;;;;;;5035561;28;20662;-73
2024/02/02 09:13:46;;;;;;;11.10;7.13;;;6.30;99.90;;;;;;5050387;28;20025;-72
2024/02/02 09:16:16;;;;;;;9.43;7.50;;;6.40;99.90;;;;;;5048107;28;20021;-72
2024/02/02 09:18:58;;;;;;;9.43;6.50;;;6.40;99.90;;;;;;5032022;28;20104;-72
2024/02/02 09:21:31;;;;;;;8.57;6.47;;;6.50;99.90;;;;;;5045023;28;20067;-73
2024/02/02 09:23:56;;;;;;;7.90;5.97;;;6.50;99.90;;;;;;5030547;28;20045;-72
2024/02/02 09:26:38;;;;;;;10.97;6.03;;;6.60;99.90;;;;;;5033636;28;20429;-73
2024/02/02 09:29:04;;;;;;;10.63;6.43;;;6.60;99.90;;;;;;5032778;28;20503;-73
2024/02/02 09:31:35;;;;;;;8.10;6.47;;;6.70;99.90;;;;;;5029270;28;20026;-73
2024/02/02 09:34:05;;;;;;;9.43;6.60;;;6.70;99.90;;;;;;5031077;28;20060;-72
2024/02/02 09:36:30;;;;;;;8.50;6.27;;;6.70;99.90;;;;;;5033403;28;20395;-72
2024/02/02 09:38:57;;;;;;;10.30;6.57;;;6.70;99.90;;;;;;5031802;28;20026;-73
2024/02/02 09:41:23;;;;;;;7.87;6.03;;;6.80;99.90;;;;;;5033067;28;20057;-72
2024/02/02 09:43:58;;;;;;;9.63;6.73;;;6.80;99.90;;;;;;5035801;28;20053;-72
2024/02/02 09:46:31;;;;;;;12.17;6.77;;;6.80;99.90;;;;;;5030114;28;20037;-73
2024/02/02 09:49:19;;;;;;;8.83;7.10;;;6.80;99.90;;;;;;5026238;28;20424;-73
2024/02/02 09:52:07;;;;;;;10.40;7.00;;;6.80;99.90;;;;;;5027789;28;20021;-72
2024/02/02 09:54:36;;;;;;;10.43;7.43;;;6.80;99.90;;;;;;5025939;28;20488;-72
2024/02/02 09:57:12;;;;;;;11.10;7.77;;;6.80;99.90;;;;;;5028233;28;20072;-73
2024/02/02 10:00:26;;;;;;;12.40;7.97;;;6.90;99.90;;;;;;5028886;28;20112;-73
2024/02/02 10:02:52;;;;;;;11.03;7.43;;;6.90;99.90;;;;;;5023430;28;20041;-73
2024/02/02 10:05:51;;;;;;;11.23;7.80;;;7.00;99.90;;;;;;5040550;28;20033;-73
2024/02/02 10:08:34;;;;;;;9.70;7.80;;;7.00;99.90;;;;;;5040862;28;20038;-72
2024/02/02 10:11:30;;;;;;;11.70;8.20;;;7.00;99.90;;;;;;5037762;28;20028;-73
2024/02/02 10:14:22;;;;;;;13.38;8.55;;;7.00;99.90;;;;;;5046011;28;20079;-73
2024/02/02 10:16:56;;;;;;;10.03;7.90;;;7.00;99.90;;;;;;5048197;28;20088;-72
2024/02/02 10:19:48;;;;;;;8.75;6.78;;;6.90;99.90;;;;;;5032074;28;20041;-73
2024/02/02 10:22:26;;;;;;;11.03;8.00;;;6.90;99.90;;;;;;5031999;28;20034;-73
2024/02/02 10:25:27;;;;;;;9.83;7.20;;;6.90;99.90;;;;;;5040744;28;20033;-73
2024/02/02 10:27:55;;;;;;;9.80;6.63;;;6.90;99.90;;;;;;5031342;28;20064;-72
2024/02/02 10:30:50;;;;;;;12.17;6.67;;;6.90;99.90;;;;;;5031670;28;20404;-72
2024/02/02 10:33:32;;;;;;;9.70;6.10;;;6.90;99.90;;;;;;5040189;28;20064;-72
2024/02/02 10:36:23;;;;;;;9.40;6.07;;;6.90;99.90;;;;;;5029767;28;20052;-73
2024/02/02 10:39:26;;;;;;;7.00;5.37;;;6.80;99.90;;;;;;5039551;28;20090;-72
2024/02/02 10:42:04;;;;;;;6.50;5.33;;;6.90;99.90;;;;;;5033513;28;20166;-72
2024/02/02 10:45:00;;;;;;;8.90;5.90;;;6.80;99.90;;;;;;5028892;28;20025;-72
2024/02/02 10:47:56;;;;;;;7.13;4.90;;;6.80;99.90;;;;;;5029224;28;20025;-72
2024/02/02 10:50:48;;;;;;;7.83;5.10;;;6.80;99.90;;;;;;5025100;28;20284;-72
2024/02/02 10:53:32;;;;;;;8.00;5.70;;;6.80;99.90;;;;;;5024309;28;20042;-72
2024/02/02 10:56:35;;;;;;;7.73;4.83;;;6.80;99.90;;;;;;5025063;28;20037;-73
2024/02/02 10:59:13;;;;;;;8.00;5.60;;;6.80;99.90;;;;;;5018281;28;20033;-73
2024/02/02 11:01:52;;;;;;;8.57;5.80;;;6.90;99.90;;;;;;5032624;28;20374;-73
2024/02/02 11:04:43;;;;;;;7.20;5.60;;;6.90;99.90;;;;;;5019636;28;20475;-72
2024/02/02 11:07:26;;;;;;;8.97;6.03;;;6.90;99.90;;;;;;5018136;28;20100;-73
2024/02/02 11:10:01;;;;;;;7.67;5.60;;;6.80;99.90;;;;;;5020240;28;20137;-72
2024/02/02 11:12:41;;;;;;;7.87;5.07;;;6.80;99.90;;;;;;5017464;28;20176;-73
2024/02/02 11:15:42;;;;;;;7.33;5.07;;;6.80;99.90;;;;;;5019335;28;20095;-72
2024/02/02 11:18:26;;;;;;;6.13;4.30;;;6.70;99.90;;;;;;5020255;28;20060;-72
2024/02/02 11:21:26;;;;;;;8.57;4.93;;;6.70;99.90;;;;;;5023700;28;20029;-72
2024/02/02 11:24:08;;;;;;;8.03;4.60;;;6.60;99.90;;;;;;5024659;28;20025;-72
2024/02/02 11:27:06;;;;;;;7.33;4.40;;;6.60;99.90;;;;;;5031399;28;20057;-72
2024/02/02 11:29:40;;;;;;;6.27;4.30;;;6.60;99.90;;;;;;4995429;28;20049;-72
2024/02/02 11:32:27;;;;;;;5.77;4.47;;;6.70;99.90;;;;;;5032167;28;20025;-72
2024/02/02 11:35:01;;;;;;;6.50;4.30;;;6.70;99.90;;;;;;5031087;28;20133;-72
2024/02/02 11:38:05;;;;;;;6.05;4.40;;;6.70;99.90;;;;;;5030663;28;20545;-72
2024/02/02 11:40:32;;;;;;;5.63;4.10;;;6.70;99.90;;;;;;5016512;28;20036;-72
2024/02/02 11:42:59;;;;;;;5.57;4.20;;;6.70;99.90;;;;;;5028680;28;20562;-72
2024/02/02 11:45:28;;;;;;;6.37;4.07;;;6.70;99.90;;;;;;5028967;28;20095;-72
2024/02/02 11:48:04;;;;;;;6.20;4.30;;;6.70;99.90;;;;;;5033408;28;20037;-73
2024/02/02 11:50:44;;;;;;;6.07;4.03;;;6.80;99.90;;;;;;5034736;28;20036;-72
2024/02/02 11:53:35;;;;;;;6.97;4.33;;;6.90;99.90;;;;;;5023505;28;20030;-72
2024/02/02 11:56:06;;;;;;;6.00;4.83;;;7.00;99.90;;;;;;5035333;28;20046;-73
2024/02/02 11:58:38;;;;;;;6.37;3.97;;;7.00;99.90;;;;;;5031417;28;20029;-73
2024/02/02 12:01:13;;;;;;;6.07;4.23;;;7.10;99.90;;;;;;5034125;28;20101;-72
2024/02/02 12:03:47;;;;;;;5.38;3.90;;;7.10;99.90;;;;;;5037400;28;20495;-73
2024/02/02 12:06:16;;;;;;;5.70;4.05;;;7.20;99.90;;;;;;5035537;28;20056;-73
2024/02/02 12:09:03;;;;;;;5.73;4.40;;;7.20;99.90;;;;;;5030308;28;20033;-72
2024/02/02 12:11:37;;;;;;;6.87;4.40;;;7.20;99.90;;;;;;5030464;28;20040;-73
2024/02/02 12:14:13;;;;;;;6.20;4.20;;;7.20;99.90;;;;;;5030755;28;20131;-73
2024/02/02 12:16:39;;;;;;;5.93;4.27;;;7.20;99.90;;;;;;5033530;28;20475;-73
2024/02/02 12:19:04;;;;;;;5.53;4.10;;;7.20;99.90;;;;;;5044443;28;20050;-73
2024/02/02 12:21:29;;;;;;;5.43;3.40;;;7.30;99.90;;;;;;5030457;28;20026;-73
2024/02/02 12:23:55;;;;;;;6.80;3.50;;;7.40;99.90;;;;;;5030016;28;20037;-72
2024/02/02 12:26:22;;;;;;;5.27;3.17;;;7.40;99.90;;;;;;5024162;28;20029;-73
2024/02/02 12:28:48;;;;;;;4.03;3.40;;;7.40;99.90;;;;;;5040357;28;20025;-73
2024/02/02 12:31:13;;;;;;;3.40;2.70;;;7.50;99.90;;;;;;5037949;28;20365;-73
2024/02/02 12:33:39;;;;;;;3.13;2.50;;;7.60;99.90;;;;;;5039972;28;20021;-73
2024/02/02 12:36:05;;;;;;;3.57;2.63;;;7.60;99.90;;;;;;5029808;28;20112;-73
2024/02/02 12:38:30;;;;;;;4.50;2.57;;;7.60;99.90;;;;;;5028779;28;20548;-73
2024/02/02 12:40:56;;;;;;;5.53;2.60;;;7.70;99.90;;;;;;5026633;28;20036;-73
2024/02/02 12:43:25;;;;;;;3.87;2.47;;;7.70;99.90;;;;;;5035629;28;20026;-73
2024/02/02 12:45:54;;;;;;;4.13;3.03;;;7.70;99.90;;;;;;5035102;28;20090;-72
2024/02/02 12:48:20;;;;;;;2.63;1.90;;;7.80;99.90;;;;;;5034635;28;20045;-73
2024/02/02 12:50:49;;;;;;;2.97;2.10;;;7.80;99.90;;;;;;5039856;28;20070;-73
2024/02/02 12:53:15;;;;;;;4.30;2.70;;;7.80;99.90;;;;;;5028491;28;20040;-73
2024/02/02 12:55:40;;;;;;;3.27;2.00;;;7.80;99.90;;;;;;5021824;28;20104;-73
2024/02/02 12:58:07;;;;;;;3.50;2.10;;;7.80;99.90;;;;;;5025828;28;20548;-73